Medicine Hat Airport, Alberta

Past 24 Hour Conditions

This table is a summary of hourly weather conditions for the past 24 hours. This summary includes the following parameters: temperature, humidity, dew point, wind speed and direction, air pressure, visibility and/or wind chill and humidex.
Date / Time
(MDT)
Conditions Temp (°F) Humidity (%) Dew Point (°F) Wind (mph) Pressure (inches) Visibility (miles)
01 October 2014
00:00 Partly Cloudy 47   88 44 W 11 29.8 10
30 September 2014
23:00 Cloudy 48 94 46 SW 9 29.8 10
22:00 Light Rain 47   96 46 SSW 7 29.8 10
21:00 Light Rainshower 48 95 46 WSW 5 29.8 10
20:00 Light Rainshower 48 92 46 WNW 7 29.8 10
19:00 Cloudy 52 72 43 NW 14 gust 20 29.8 30
18:00 Cloudy 53 74 45 NW 14 gust 24 29.7 30
17:00 Light Rainshower 53 82 47 NW 15 gust 22 29.7 30
16:00 Cloudy 54 76 47 NW 17 gust 26 29.7 30
15:00 Cloudy 55 79 49 NW 18 gust 24 29.7 30
14:00 Cloudy 57 76 49 NW 16 gust 23 29.6 15
13:00 Cloudy 56 77 49 NW 13 gust 20 29.6 15
12:00 Partly Cloudy 61   68 51 W 17 gust 25 29.6 30
11:00 Partly Cloudy 59 72 50 WNW 12 gust 18 29.6 30
10:00 Partly Cloudy 57 79 50 WNW 9 29.6 30
9:00 Partly Cloudy 53 84 48 WNW 6 29.6 30
8:00 Mostly Cloudy 50 88 47 SW 8 29.6 30
7:00 Mostly Cloudy 52 84 48 WSW 9 29.5 30
6:00 Cloudy 54 83 49 SW 11 29.5 10
5:00 Light Rain 56 76 49 SW 18 gust 24 29.5 10
4:00 Mostly Cloudy 57 69 48 SSW 15 gust 22 29.5 10
3:00 Mostly Cloudy 56 73 47 S 13 gust 20 29.5 10
2:00 Mostly Cloudy 55 77 48 S 10 gust 20 29.5 10
1:00 Mostly Cloudy 56 75 48 S 15 29.6 10
00:00 Mostly Cloudy 56 75 48 SSW 11 29.6 10
N/A
Not available
 ↑ 
Highest temperature
 ↓ 
Lowest temperature

If you require additional historical weather information, please visit Climate Data Online.